createdAt,value
2022-11-08T00:00:01.440Z,11.76
2022-11-08T00:02:28.541Z,11.74
2022-11-08T00:04:55.197Z,11.75
2022-11-08T00:07:40.781Z,11.74
2022-11-08T00:10:26.700Z,11.73
2022-11-08T00:13:11.922Z,11.71
2022-11-08T00:15:39.046Z,11.73
2022-11-08T00:18:07.224Z,11.72
2022-11-08T00:20:34.669Z,11.70
2022-11-08T00:23:01.541Z,11.75
2022-11-08T00:25:28.163Z,11.72
2022-11-08T00:27:55.204Z,11.72
2022-11-08T00:30:22.020Z,11.77
2022-11-08T00:32:48.783Z,11.72
2022-11-08T00:35:15.540Z,11.81
2022-11-08T00:37:42.201Z,11.79
2022-11-08T00:40:09.349Z,11.75
2022-11-08T00:42:35.969Z,11.81
2022-11-08T00:45:02.875Z,11.82
2022-11-08T00:47:29.476Z,11.83
2022-11-08T00:49:56.130Z,11.84
2022-11-08T00:52:22.978Z,11.83
2022-11-08T00:54:49.549Z,11.81
2022-11-08T00:57:16.237Z,11.83
2022-11-08T00:59:43.074Z,11.83
2022-11-08T01:02:09.669Z,11.91
2022-11-08T01:04:36.327Z,11.91
2022-11-08T01:07:03.380Z,11.93
2022-11-08T01:09:30.009Z,11.91
2022-11-08T01:11:56.997Z,11.92
2022-11-08T01:14:23.902Z,11.94
2022-11-08T01:16:50.531Z,11.86
2022-11-08T01:19:17.347Z,12.00
2022-11-08T01:21:43.982Z,11.94
2022-11-08T01:24:10.555Z,11.98
2022-11-08T01:26:37.714Z,11.99
2022-11-08T01:29:04.384Z,12.01
2022-11-08T01:31:32.587Z,11.99
2022-11-08T01:34:00.299Z,12.01
2022-11-08T01:36:28.463Z,12.02
2022-11-08T01:38:56.778Z,12.01
2022-11-08T01:41:25.900Z,12.03
2022-11-08T01:43:54.897Z,12.02
2022-11-08T01:46:42.660Z,11.87
2022-11-08T01:49:37.523Z,12.05
2022-11-08T01:52:22.959Z,12.05
2022-11-08T01:55:02.996Z,12.03
2022-11-08T01:57:52.597Z,12.04
2022-11-08T02:00:20.039Z,11.98
2022-11-08T02:02:56.870Z,12.02
2022-11-08T02:05:26.972Z,12.00
2022-11-08T02:07:56.488Z,12.01
2022-11-08T02:10:27.465Z,12.01
2022-11-08T02:12:55.339Z,12.01
2022-11-08T02:15:24.984Z,12.01
2022-11-08T02:17:52.737Z,11.99
2022-11-08T02:20:19.591Z,11.99
2022-11-08T02:22:56.593Z,11.94
2022-11-08T02:25:23.626Z,12.00
2022-11-08T02:27:50.245Z,12.01
2022-11-08T02:30:17.006Z,11.94
2022-11-08T02:32:43.647Z,12.02
2022-11-08T02:35:18.173Z,12.03
2022-11-08T02:37:45.796Z,12.02
2022-11-08T02:40:12.583Z,12.04
2022-11-08T02:42:39.562Z,12.06
2022-11-08T02:45:07.944Z,12.07
2022-11-08T02:47:34.690Z,12.05
2022-11-08T02:50:01.345Z,12.08
2022-11-08T02:52:28.207Z,12.10
2022-11-08T02:54:54.789Z,12.07
2022-11-08T02:57:21.537Z,12.05
2022-11-08T02:59:49.349Z,12.11
2022-11-08T03:02:16.068Z,12.09
2022-11-08T03:04:42.891Z,12.09
2022-11-08T03:07:09.740Z,12.03
2022-11-08T03:09:36.385Z,12.02
2022-11-08T03:12:03.248Z,12.03
2022-11-08T03:14:29.934Z,12.05
2022-11-08T03:16:56.573Z,12.06
2022-11-08T03:19:23.158Z,11.95
2022-11-08T03:21:49.863Z,12.03
2022-11-08T03:24:16.539Z,12.07
2022-11-08T03:26:43.454Z,12.03
2022-11-08T03:29:10.145Z,12.05
2022-11-08T03:31:36.708Z,12.06
2022-11-08T03:34:03.270Z,12.09
2022-11-08T03:36:30.406Z,12.11
2022-11-08T03:38:57.013Z,12.07
2022-11-08T03:41:23.709Z,12.06
2022-11-08T03:43:50.396Z,12.13
2022-11-08T03:46:17.046Z,12.12
2022-11-08T03:48:43.717Z,12.06
2022-11-08T03:51:10.663Z,12.11
2022-11-08T03:53:37.256Z,12.07
2022-11-08T03:56:04.001Z,12.10
2022-11-08T03:58:31.048Z,12.15
2022-11-08T04:00:58.300Z,12.13
2022-11-08T04:03:25.280Z,12.13
2022-11-08T04:05:52.053Z,12.12
2022-11-08T04:08:18.958Z,12.11
2022-11-08T04:10:45.780Z,12.08
2022-11-08T04:13:31.148Z,12.06
2022-11-08T04:15:58.162Z,12.07
2022-11-08T04:18:43.683Z,12.08
2022-11-08T04:21:21.970Z,12.09
2022-11-08T04:23:50.851Z,12.05
2022-11-08T04:26:18.427Z,12.06
2022-11-08T04:28:45.521Z,12.04
2022-11-08T04:31:15.654Z,12.05
2022-11-08T04:33:42.504Z,12.06
2022-11-08T04:36:14.802Z,12.04
2022-11-08T04:38:41.774Z,12.07
2022-11-08T04:41:12.027Z,12.03
2022-11-08T04:43:39.012Z,12.05
2022-11-08T04:46:08.607Z,12.07
2022-11-08T04:48:35.599Z,12.04
2022-11-08T04:51:13.345Z,12.09
2022-11-08T04:53:40.920Z,12.04
2022-11-08T04:56:10.544Z,11.99
2022-11-08T04:58:39.727Z,12.01
2022-11-08T05:01:08.051Z,11.97
2022-11-08T05:03:35.406Z,11.82
2022-11-08T05:06:03.886Z,11.85
2022-11-08T05:08:30.755Z,11.83
2022-11-08T05:11:01.721Z,11.79
2022-11-08T05:13:28.838Z,11.80
2022-11-08T05:15:59.968Z,11.81
2022-11-08T05:18:26.878Z,11.78
2022-11-08T05:21:13.596Z,11.80
2022-11-08T05:23:40.400Z,11.79
2022-11-08T05:26:07.872Z,11.79
2022-11-08T05:28:35.029Z,11.75
2022-11-08T05:31:01.894Z,11.79
2022-11-08T05:33:28.507Z,11.78
2022-11-08T05:35:55.338Z,11.82
2022-11-08T05:38:22.117Z,11.82
2022-11-08T05:40:48.785Z,11.85
2022-11-08T05:43:16.013Z,11.86
2022-11-08T05:45:44.873Z,11.80
2022-11-08T05:48:11.445Z,11.81
2022-11-08T05:50:38.128Z,11.84
2022-11-08T05:53:05.006Z,11.84
2022-11-08T05:55:31.821Z,11.84
2022-11-08T05:57:58.701Z,11.82
2022-11-08T06:00:25.352Z,11.76
2022-11-08T06:02:52.041Z,11.85
2022-11-08T06:05:18.861Z,11.74
2022-11-08T06:07:45.468Z,11.84
2022-11-08T06:10:12.157Z,11.83
2022-11-08T06:12:38.871Z,11.77
2022-11-08T06:15:09.233Z,11.77
2022-11-08T06:17:36.190Z,11.73
2022-11-08T06:20:04.349Z,11.71
2022-11-08T06:22:32.661Z,11.75
2022-11-08T06:24:59.745Z,11.77
2022-11-08T06:27:26.554Z,11.79
2022-11-08T06:29:53.427Z,11.87
2022-11-08T06:32:20.295Z,11.92
2022-11-08T06:34:47.036Z,11.90
2022-11-08T06:37:14.126Z,11.99
2022-11-08T06:39:41.566Z,11.95
2022-11-08T06:42:09.076Z,11.99
2022-11-08T06:44:36.285Z,12.02
2022-11-08T06:47:02.909Z,12.06
2022-11-08T06:49:29.885Z,12.03
2022-11-08T06:51:56.649Z,12.09
2022-11-08T06:54:25.881Z,12.15
2022-11-08T06:56:56.536Z,12.18
2022-11-08T06:59:23.402Z,12.21
2022-11-08T07:01:50.155Z,12.23
2022-11-08T07:04:17.142Z,12.23
2022-11-08T07:06:43.973Z,12.25
2022-11-08T07:09:10.672Z,12.30
2022-11-08T07:11:37.486Z,12.35
2022-11-08T07:14:04.397Z,12.38
2022-11-08T07:16:30.981Z,12.42
2022-11-08T07:18:57.808Z,12.41
2022-11-08T07:21:24.437Z,12.49
2022-11-08T07:23:51.036Z,12.51
2022-11-08T07:26:18.429Z,12.49
2022-11-08T07:28:45.047Z,12.55
2022-11-08T07:31:11.664Z,12.57
2022-11-08T07:33:38.683Z,12.57
2022-11-08T07:36:05.619Z,12.58
2022-11-08T07:38:32.485Z,12.60
2022-11-08T07:41:00.892Z,12.68
2022-11-08T07:43:29.529Z,12.67
2022-11-08T07:45:58.773Z,12.69
2022-11-08T07:48:26.623Z,12.68
2022-11-08T07:50:53.419Z,12.70
2022-11-08T07:53:20.799Z,12.72
2022-11-08T07:55:48.633Z,12.76
2022-11-08T07:58:15.846Z,12.79
2022-11-08T08:00:44.483Z,12.82
2022-11-08T08:03:13.002Z,12.85
2022-11-08T08:05:45.189Z,12.84
2022-11-08T08:08:13.970Z,12.87
2022-11-08T08:10:41.238Z,12.92
2022-11-08T08:13:08.448Z,12.95
2022-11-08T08:15:35.347Z,12.97
2022-11-08T08:18:04.066Z,12.96
2022-11-08T08:20:31.427Z,13.01
2022-11-08T08:22:58.341Z,13.04
2022-11-08T08:25:25.837Z,13.10
2022-11-08T08:27:55.548Z,13.14
2022-11-08T08:30:23.504Z,13.15
2022-11-08T08:33:08.191Z,13.24
2022-11-08T08:35:38.819Z,13.28
2022-11-08T08:38:06.785Z,13.35
2022-11-08T08:40:34.713Z,13.36
2022-11-08T08:43:03.596Z,13.33
2022-11-08T08:45:31.556Z,13.36
2022-11-08T08:47:59.203Z,13.43
2022-11-08T08:50:28.455Z,13.49
2022-11-08T08:53:03.134Z,13.52
2022-11-08T08:55:29.899Z,13.57
2022-11-08T08:57:56.953Z,13.55
2022-11-08T09:03:12.164Z,13.61
2022-11-08T09:05:41.854Z,13.70
2022-11-08T09:08:08.514Z,13.73
2022-11-08T09:10:35.664Z,13.70
2022-11-08T09:13:03.766Z,13.69
2022-11-08T09:15:30.709Z,13.68
2022-11-08T09:17:57.999Z,13.67
2022-11-08T09:20:25.218Z,13.74
2022-11-08T09:22:51.803Z,13.74
2022-11-08T09:25:18.844Z,13.80
2022-11-08T09:27:46.045Z,13.82
2022-11-08T09:30:12.809Z,13.89
2022-11-08T09:32:59.688Z,13.91
2022-11-08T09:35:26.174Z,13.97
2022-11-08T09:37:54.076Z,13.98
2022-11-08T09:40:40.747Z,13.99
2022-11-08T09:43:31.324Z,13.98
2022-11-08T09:45:58.244Z,13.94
2022-11-08T09:48:43.194Z,13.92
2022-11-08T09:51:16.458Z,13.85
2022-11-08T09:53:52.324Z,13.93
2022-11-08T09:56:23.573Z,13.94
2022-11-08T09:59:02.581Z,13.92
2022-11-08T10:01:34.624Z,13.91
2022-11-08T10:04:13.668Z,13.93
2022-11-08T10:07:03.245Z,13.97
2022-11-08T10:09:35.900Z,13.98
2022-11-08T10:12:14.721Z,14.01
2022-11-08T10:15:06.158Z,14.03
2022-11-08T10:17:42.773Z,14.04
2022-11-08T10:20:09.726Z,14.06
2022-11-08T10:22:42.468Z,14.09
2022-11-08T10:25:27.112Z,14.10
2022-11-08T10:27:56.516Z,14.12
2022-11-08T10:30:27.724Z,14.13
2022-11-08T10:32:55.797Z,14.15
2022-11-08T10:35:40.928Z,14.16
2022-11-08T10:38:22.332Z,14.17
2022-11-08T10:40:55.557Z,14.19
2022-11-08T10:43:29.942Z,14.15
2022-11-08T10:45:56.953Z,14.19
2022-11-08T10:48:23.556Z,14.15
2022-11-08T10:50:51.883Z,14.17
2022-11-08T10:53:30.656Z,14.24
2022-11-08T10:56:01.332Z,14.21
2022-11-08T10:58:29.927Z,14.20
2022-11-08T11:01:15.887Z,14.20
2022-11-08T11:03:43.110Z,14.14
2022-11-08T11:06:31.211Z,14.15
2022-11-08T11:09:17.213Z,14.13
2022-11-08T11:11:45.110Z,14.05
2022-11-08T11:14:18.288Z,14.12
2022-11-08T11:17:01.495Z,14.15
2022-11-08T11:19:29.643Z,14.06
2022-11-08T11:22:08.594Z,14.14
2022-11-08T11:24:56.164Z,14.12
2022-11-08T11:27:36.814Z,14.12
2022-11-08T11:30:12.680Z,14.13
2022-11-08T11:32:40.165Z,14.12
2022-11-08T11:35:13.900Z,14.10
2022-11-08T11:37:44.809Z,14.11
2022-11-08T11:40:40.744Z,14.07
2022-11-08T11:43:16.614Z,14.01
2022-11-08T11:45:50.405Z,13.97
2022-11-08T11:48:22.544Z,13.98
2022-11-08T11:50:50.520Z,13.90
2022-11-08T11:53:25.676Z,13.91
2022-11-08T11:56:20.092Z,13.92
2022-11-08T11:59:10.263Z,13.89
2022-11-08T12:01:46.012Z,13.87
2022-11-08T12:04:55.123Z,13.84
2022-11-08T12:07:30.817Z,13.89
2022-11-08T12:10:29.526Z,13.87
2022-11-08T12:13:03.894Z,13.88
2022-11-08T12:15:49.605Z,13.86
2022-11-08T12:18:43.362Z,13.87
2022-11-08T12:21:38.516Z,13.91
2022-11-08T12:24:33.967Z,13.91
2022-11-08T12:27:06.011Z,13.96
2022-11-08T12:29:51.902Z,13.99
2022-11-08T12:32:19.010Z,14.01
2022-11-08T12:35:26.609Z,14.04
2022-11-08T12:38:21.508Z,14.10
2022-11-08T12:41:08.691Z,14.15
2022-11-08T12:43:44.871Z,14.27
2022-11-08T12:46:16.539Z,14.38
2022-11-08T12:48:50.272Z,14.52
2022-11-08T12:51:29.439Z,14.62
2022-11-08T12:54:14.872Z,14.67
2022-11-08T12:56:48.291Z,14.74
2022-11-08T12:59:23.100Z,14.70
2022-11-08T13:01:51.220Z,14.75
2022-11-08T13:04:36.995Z,14.80
2022-11-08T13:07:14.506Z,14.76
2022-11-08T13:09:58.184Z,14.71
2022-11-08T13:13:10.775Z,14.72
2022-11-08T13:16:07.354Z,14.74
2022-11-08T13:18:35.481Z,14.70
2022-11-08T13:21:28.049Z,14.66
2022-11-08T13:23:55.773Z,14.62
2022-11-08T13:26:26.543Z,14.65
2022-11-08T13:28:54.044Z,14.59
2022-11-08T13:31:23.304Z,14.53
2022-11-08T13:34:28.011Z,14.47
2022-11-08T13:37:22.819Z,14.48
2022-11-08T13:40:09.057Z,14.50
2022-11-08T13:42:35.945Z,14.51
2022-11-08T13:45:33.114Z,14.49
2022-11-08T13:48:28.672Z,14.44
2022-11-08T13:50:57.801Z,14.44
2022-11-08T13:53:42.766Z,14.43
2022-11-08T13:56:09.408Z,14.37
2022-11-08T13:58:44.969Z,14.31
2022-11-08T14:01:21.082Z,14.29
2022-11-08T14:03:47.933Z,14.22
2022-11-08T14:06:36.871Z,14.19
2022-11-08T14:09:35.907Z,14.19
2022-11-08T14:12:22.231Z,14.05
2022-11-08T14:14:55.197Z,14.04
2022-11-08T14:18:01.392Z,13.94
2022-11-08T14:20:28.590Z,13.92
2022-11-08T14:22:57.001Z,13.84
2022-11-08T14:25:23.762Z,13.87
2022-11-08T14:27:50.859Z,13.84
2022-11-08T14:30:20.607Z,13.87
2022-11-08T14:32:48.203Z,13.84
2022-11-08T14:35:25.799Z,13.74
2022-11-08T14:37:53.747Z,13.82
2022-11-08T14:40:26.823Z,13.77
2022-11-08T14:42:55.458Z,13.72
2022-11-08T14:45:26.675Z,13.76
2022-11-08T14:48:03.438Z,13.70
2022-11-08T14:50:34.939Z,13.75
2022-11-08T14:53:21.580Z,13.74
2022-11-08T14:55:53.863Z,13.72
2022-11-08T14:58:20.570Z,13.78
2022-11-08T15:00:49.565Z,13.78
2022-11-08T15:03:19.279Z,13.76
2022-11-08T15:06:14.221Z,13.78
2022-11-08T15:08:51.565Z,13.75
2022-11-08T15:11:52.724Z,13.68
2022-11-08T15:14:22.152Z,13.64
2022-11-08T15:16:52.098Z,13.58
2022-11-08T15:19:44.975Z,13.50
2022-11-08T15:22:27.232Z,13.41
2022-11-08T15:25:18.962Z,13.35
2022-11-08T15:27:56.695Z,13.23
2022-11-08T15:30:39.858Z,13.17
2022-11-08T15:33:44.954Z,13.06
2022-11-08T15:36:13.997Z,12.88
2022-11-08T15:38:42.671Z,12.78
2022-11-08T15:41:33.147Z,12.63
2022-11-08T15:44:21.940Z,12.45
2022-11-08T15:46:49.260Z,12.32
2022-11-08T15:49:27.127Z,12.18
2022-11-08T15:51:56.313Z,12.09
2022-11-08T15:54:24.314Z,11.95
2022-11-08T15:56:54.934Z,11.82
2022-11-08T15:59:27.969Z,11.62
2022-11-08T16:02:02.624Z,11.64
2022-11-08T16:04:30.315Z,11.55
2022-11-08T16:06:58.083Z,11.51
2022-11-08T16:09:25.008Z,11.42
2022-11-08T16:11:52.124Z,11.34
2022-11-08T16:14:22.605Z,11.25
2022-11-08T16:16:49.663Z,11.17
2022-11-08T16:19:22.267Z,11.03
2022-11-08T16:21:49.684Z,10.96
2022-11-08T16:24:16.333Z,10.79
2022-11-08T16:26:44.658Z,10.69
2022-11-08T16:29:20.140Z,10.56
2022-11-08T16:31:48.079Z,10.53
2022-11-08T16:34:14.800Z,10.51
2022-11-08T16:36:45.076Z,10.42
2022-11-08T16:39:26.445Z,10.34
2022-11-08T16:41:53.285Z,10.23
2022-11-08T16:44:20.495Z,10.28
2022-11-08T16:46:48.005Z,10.21
2022-11-08T16:49:20.974Z,10.23
2022-11-08T16:51:48.640Z,10.15
2022-11-08T16:54:19.749Z,10.08
2022-11-08T16:56:46.471Z,10.00
2022-11-08T16:59:13.292Z,9.90
2022-11-08T17:01:40.458Z,9.83
2022-11-08T17:04:07.077Z,9.76
2022-11-08T17:06:33.980Z,9.72
2022-11-08T17:09:00.687Z,9.68
2022-11-08T17:11:27.259Z,9.66
2022-11-08T17:13:54.958Z,9.60
2022-11-08T17:16:21.635Z,9.54
2022-11-08T17:18:52.537Z,9.48
2022-11-08T17:21:43.637Z,9.45
2022-11-08T17:24:07.229Z,9.40
2022-11-08T17:26:33.837Z,9.35
2022-11-08T17:29:00.457Z,9.29
2022-11-08T17:31:27.236Z,9.25
2022-11-08T17:33:56.071Z,9.19
2022-11-08T17:36:23.350Z,9.18
2022-11-08T17:38:49.990Z,9.10
2022-11-08T17:41:17.176Z,9.05
2022-11-08T17:43:44.281Z,9.02
2022-11-08T17:46:11.674Z,8.97
2022-11-08T17:48:40.087Z,8.92
2022-11-08T17:51:06.909Z,8.88
2022-11-08T17:53:34.274Z,8.86
2022-11-08T17:56:04.170Z,8.82
2022-11-08T17:58:33.814Z,8.81
2022-11-08T18:01:03.130Z,8.80
2022-11-08T18:03:30.220Z,8.75
2022-11-08T18:06:12.607Z,8.54
2022-11-08T18:08:40.579Z,8.70
2022-11-08T18:11:07.385Z,8.65
2022-11-08T18:13:35.268Z,8.63
2022-11-08T18:16:09.360Z,8.62
2022-11-08T18:18:36.582Z,8.60
2022-11-08T18:21:03.446Z,8.62
2022-11-08T18:23:30.465Z,8.64
2022-11-08T18:25:57.403Z,8.66
2022-11-08T18:28:24.646Z,8.68
2022-11-08T18:30:51.697Z,8.68
2022-11-08T18:33:19.964Z,8.76
2022-11-08T18:35:47.309Z,8.80
2022-11-08T18:38:15.019Z,8.86
2022-11-08T18:40:44.650Z,8.87
2022-11-08T18:43:11.307Z,8.93
2022-11-08T18:45:38.155Z,9.03
2022-11-08T18:48:04.913Z,9.06
2022-11-08T18:50:31.978Z,9.10
2022-11-08T18:53:03.247Z,9.13
2022-11-08T18:55:31.755Z,9.17
2022-11-08T18:58:01.299Z,9.17
2022-11-08T19:00:28.001Z,9.11
2022-11-08T19:02:54.955Z,9.14
2022-11-08T19:05:21.876Z,9.14
2022-11-08T19:07:48.474Z,9.12
2022-11-08T19:10:15.540Z,9.12
2022-11-08T19:12:42.434Z,9.08
2022-11-08T19:15:09.710Z,9.06
2022-11-08T19:17:36.543Z,9.01
2022-11-08T19:20:04.291Z,8.93
2022-11-08T19:22:31.133Z,8.89
2022-11-08T19:24:57.753Z,8.86
2022-11-08T19:27:24.610Z,8.86
2022-11-08T19:29:51.435Z,8.83
2022-11-08T19:32:18.046Z,8.74
2022-11-08T19:34:47.131Z,8.68
2022-11-08T19:37:13.848Z,8.63
2022-11-08T19:39:40.439Z,8.58
2022-11-08T19:42:07.371Z,8.53
2022-11-08T19:44:33.991Z,8.44
2022-11-08T19:47:00.817Z,8.39
2022-11-08T19:49:28.796Z,8.35
2022-11-08T19:51:55.564Z,8.31
2022-11-08T19:54:22.203Z,8.29
2022-11-08T19:57:06.030Z,8.24
2022-11-08T19:59:33.393Z,8.22
2022-11-08T20:02:00.430Z,8.14
2022-11-08T20:04:27.231Z,8.06
2022-11-08T20:06:54.014Z,8.01
2022-11-08T20:09:24.613Z,7.97
2022-11-08T20:11:55.181Z,7.94
2022-11-08T20:14:21.971Z,7.90
2022-11-08T20:16:53.192Z,7.89
2022-11-08T20:19:21.253Z,7.82
2022-11-08T20:21:48.405Z,7.80
2022-11-08T20:24:16.065Z,7.76
2022-11-08T20:26:43.312Z,7.69
2022-11-08T20:29:10.304Z,7.66
2022-11-08T20:31:37.021Z,7.62
2022-11-08T20:34:06.102Z,7.56
2022-11-08T20:36:35.444Z,7.54
2022-11-08T20:39:06.856Z,7.49
2022-11-08T20:41:35.653Z,7.41
2022-11-08T20:44:03.048Z,7.41
2022-11-08T20:46:29.717Z,7.37
2022-11-08T20:49:00.360Z,7.36
2022-11-08T20:51:27.849Z,7.33
2022-11-08T20:53:56.191Z,7.26
2022-11-08T20:56:24.086Z,7.20
2022-11-08T20:58:52.228Z,7.14
2022-11-08T21:01:21.475Z,7.10
2022-11-08T21:03:48.734Z,7.09
2022-11-08T21:06:22.894Z,6.96
2022-11-08T21:08:59.935Z,7.05
2022-11-08T21:11:30.820Z,6.95
2022-11-08T21:13:58.266Z,6.89
2022-11-08T21:16:46.984Z,6.83
2022-11-08T21:19:11.889Z,6.77
2022-11-08T21:21:38.629Z,6.75
2022-11-08T21:24:05.436Z,6.71
2022-11-08T21:26:36.440Z,6.67
2022-11-08T21:29:04.883Z,6.67
2022-11-08T21:31:31.890Z,6.66
2022-11-08T21:33:59.107Z,6.66
2022-11-08T21:36:29.235Z,6.63
2022-11-08T21:38:56.117Z,6.58
2022-11-08T21:41:23.283Z,6.54
2022-11-08T21:43:49.947Z,6.50
2022-11-08T21:46:19.380Z,6.49
2022-11-08T21:48:47.347Z,6.48
2022-11-08T21:51:14.611Z,6.42
2022-11-08T21:53:52.402Z,6.38
2022-11-08T21:56:22.438Z,6.32
2022-11-08T21:58:49.201Z,6.30
2022-11-08T22:01:16.791Z,6.27
2022-11-08T22:03:44.115Z,6.28
2022-11-08T22:06:10.789Z,6.29
2022-11-08T22:08:37.533Z,6.31
2022-11-08T22:11:04.768Z,6.29
2022-11-08T22:13:31.431Z,6.33
2022-11-08T22:15:58.133Z,6.32
2022-11-08T22:18:36.716Z,6.31
2022-11-08T22:21:29.887Z,6.28
2022-11-08T22:23:56.944Z,6.23
2022-11-08T22:26:23.636Z,6.26
2022-11-08T22:28:50.333Z,6.26
2022-11-08T22:31:17.598Z,6.25
2022-11-08T22:33:44.494Z,6.27
2022-11-08T22:36:11.959Z,6.29
2022-11-08T22:38:39.179Z,6.32
2022-11-08T22:41:06.403Z,6.32
2022-11-08T22:43:34.755Z,6.38
2022-11-08T22:46:02.117Z,6.41
2022-11-08T22:48:28.774Z,6.41
2022-11-08T22:50:55.589Z,6.42
2022-11-08T22:53:22.489Z,6.44
2022-11-08T22:55:49.106Z,6.45
2022-11-08T22:58:15.927Z,6.48
2022-11-08T23:00:45.734Z,6.50
2022-11-08T23:03:12.774Z,6.53
2022-11-08T23:05:39.399Z,6.52
2022-11-08T23:08:06.884Z,6.57
2022-11-08T23:10:53.467Z,6.56
2022-11-08T23:13:38.626Z,6.55
2022-11-08T23:16:24.277Z,6.54
2022-11-08T23:19:09.359Z,6.57
2022-11-08T23:21:54.518Z,6.58
2022-11-08T23:24:21.524Z,6.55
2022-11-08T23:27:06.992Z,6.53
2022-11-08T23:29:52.350Z,6.50
2022-11-08T23:32:18.953Z,6.50
2022-11-08T23:34:45.526Z,6.51
2022-11-08T23:37:12.138Z,6.50
2022-11-08T23:39:58.652Z,6.48
2022-11-08T23:42:44.366Z,6.44
2022-11-08T23:45:11.396Z,6.38
2022-11-08T23:47:38.197Z,6.34
2022-11-08T23:50:05.442Z,6.36
2022-11-08T23:52:33.017Z,6.37
2022-11-08T23:54:59.710Z,6.37
2022-11-08T23:57:26.269Z,6.37
2022-11-08T23:59:52.907Z,6.39
